KFXE/FXE METAR and TAF weather

Enter ICAO airport designator
Station Type Date Time Source
KFXE METAR 2020/11/28 18:53 UTC NOAA

KFXE 281853Z 15004KT 10SM SCT026 BKN037 OVC060 27/21 A2999 RMK AO2 SLP158 T02670211


Station Type Date Time Source
KFXE Decoded METAR 2020/11/28 18:53 UTC NOAA

FORT LAUDERDALE EXECUTIVE, FL, United States (KFXE) 26-12N 080-11W 6M
Nov 28, 2020 - 01:53 PM EST / 2020.11.28 1853 UTC
Wind: from the SSE (150 degrees) at 5 MPH (4 KT):0
Visibility: 10 mile(s):0
Sky conditions: overcast
Temperature: 80.1 F (26.7 C)
Dew Point: 70.0 F (21.1 C)
Relative Humidity: 71%
Pressure (altimeter): 29.99 in. Hg (1015 hPa)
ob: KFXE 281853Z 15004KT 10SM SCT026 BKN037 OVC060 27/21 A2999 RMK AO2 SLP158 T02670211
cycle: 19

Station Type Date Time Source
KFXE TAF 2020/11/28 18:48 UTC NOAA

TAF KFXE 281745Z 2818/2918 11007KT P6SM SCT030 BKN050
FM290000 VRB03KT P6SM FEW030 SCT250
FM291000 VRB03KT P6SM SCT025 BKN050

Example: see airport list